Time;durP1;ratioP1;P1;durP2;ratioP2;P2;SDS_P1;SDS_P2;PMS_P1;PMS_P2;Temp;Humidity;BMP_temperature;BMP_pressure;BME280_temperature;BME280_humidity;BME280_pressure;Samples;Min_cycle;Max_cycle;Signal;HPM_P1;HPM_P2
2023/04/12 00:00:10;;;;;;;6.03;2.90;;;;;;;8.54;55.53;98392.59;5076229;28;41924;-77
2023/04/12 00:02:38;;;;;;;3.97;2.53;;;;;;;8.54;55.48;98385.53;5093015;28;41413;-76
2023/04/12 00:05:08;;;;;;;3.87;2.40;;;;;;;8.54;55.77;98382.06;5076345;28;39934;-76
2023/04/12 00:07:37;;;;;;;4.47;2.67;;;;;;;8.54;55.60;98379.41;5075974;28;40817;-76
2023/04/12 00:10:09;;;;;;;3.57;2.50;;;;;;;8.54;55.94;98363.59;5094293;28;42734;-77
2023/04/12 00:12:36;;;;;;;3.13;2.40;;;;;;;8.46;56.86;98344.75;5093745;28;42325;-76
2023/04/12 00:15:05;;;;;;;4.73;3.50;;;;;;;8.54;57.83;98347.75;5075933;28;40085;-77
2023/04/12 00:17:33;;;;;;;4.00;2.83;;;;;;;8.56;57.63;98353.78;5093066;28;41845;-76
2023/04/12 00:20:04;;;;;;;4.67;3.17;;;;;;;8.58;57.97;98339.56;5093196;28;42817;-76
2023/04/12 00:22:32;;;;;;;2.73;2.13;;;;;;;8.61;58.04;98333.25;5093350;28;43212;-76
2023/04/12 00:25:00;;;;;;;4.33;2.50;;;;;;;8.57;57.78;98321.16;5093129;28;40173;-76
2023/04/12 00:27:29;;;;;;;2.43;1.63;;;;;;;8.66;57.50;98328.50;5092782;28;41816;-76
2023/04/12 00:29:57;;;;;;;3.47;1.73;;;;;;;8.70;57.24;98327.38;5076094;28;42096;-76
2023/04/12 00:32:25;;;;;;;2.93;1.47;;;;;;;8.73;57.00;98328.97;5092722;28;42085;-76
2023/04/12 00:34:52;;;;;;;2.93;1.60;;;;;;;8.75;56.78;98330.59;5092467;28;39935;-76
2023/04/12 00:37:21;;;;;;;1.90;1.40;;;;;;;8.66;56.65;98315.31;5075734;28;41626;-76
2023/04/12 00:39:49;;;;;;;3.03;1.50;;;;;;;8.78;57.04;98327.72;5075853;28;41820;-76
2023/04/12 00:42:16;;;;;;;2.63;1.50;;;;;;;8.79;56.76;98316.22;5075676;28;41417;-76
2023/04/12 00:44:46;;;;;;;4.43;1.90;;;;;;;8.71;58.35;98296.53;5075883;28;39060;-76
2023/04/12 00:47:14;;;;;;;4.17;1.87;;;;;;;8.81;58.22;98303.78;5075450;28;40738;-76
2023/04/12 00:49:42;;;;;;;3.47;1.57;;;;;;;8.84;58.32;98300.09;5092740;28;43853;-76
2023/04/12 00:52:13;;;;;;;4.37;1.50;;;;;;;8.85;58.30;98294.72;5092197;28;42299;-76
2023/04/12 00:54:42;;;;;;;3.03;1.70;;;;;;;8.75;57.95;98276.94;5089760;28;41706;-76
2023/04/12 00:57:12;;;;;;;2.87;1.63;;;;;;;8.91;57.91;98289.03;5092430;28;40556;-76
2023/04/12 00:59:39;;;;;;;1.53;1.43;;;;;;;8.94;57.86;98296.75;5092627;28;43030;-76
2023/04/12 01:02:09;;;;;;;3.33;1.30;;;;;;;8.96;57.37;98297.50;5075150;28;42495;-76
2023/04/12 01:04:38;;;;;;;3.30;1.50;;;;;;;9.02;57.64;98284.88;5075856;28;38665;-76
2023/04/12 01:07:14;;;;;;;3.23;1.60;;;;;;;9.02;57.41;98281.25;5092131;28;41718;-76
2023/04/12 01:09:53;;;;;;;1.97;1.20;;;;;;;9.04;57.38;98277.66;5089520;28;43854;-76
2023/04/12 01:12:32;;;;;;;1.53;1.30;;;;;;;9.05;57.21;98269.66;5091090;28;42473;-76
2023/04/12 01:15:06;;;;;;;2.43;1.40;;;;;;;8.95;57.41;98261.50;5075198;28;38996;-75
2023/04/12 01:17:39;;;;;;;2.17;1.50;;;;;;;9.07;57.51;98277.47;5091163;28;41793;-77
2023/04/12 01:20:13;;;;;;;2.97;1.50;;;;;;;9.07;57.70;98282.75;5075083;28;42309;-77
2023/04/12 01:23:07;;;;;;;1.83;1.30;;;;;;;9.06;57.54;98275.78;5092005;28;42322;-76
2023/04/12 01:25:40;;;;;;;4.70;1.70;;;;;;;9.06;57.88;98275.78;5056846;28;40654;-77
2023/04/12 01:28:12;;;;;;;2.43;1.33;;;;;;;8.96;58.26;98257.91;5092148;28;42658;-76
2023/04/12 01:30:42;;;;;;;3.63;1.70;;;;;;;8.99;58.73;98248.94;5075625;28;41982;-76
2023/04/12 01:33:12;;;;;;;3.83;1.97;;;;;;;9.00;58.86;98235.63;5091805;28;41426;-76
2023/04/12 01:35:40;;;;;;;2.53;2.00;;;;;;;9.09;58.39;98249.16;5092093;28;40766;-75
2023/04/12 01:38:10;;;;;;;2.10;1.50;;;;;;;9.10;58.66;98248.22;5091707;28;42872;-76
2023/04/12 01:40:41;;;;;;;4.67;1.80;;;;;;;9.14;58.20;98247.09;5075118;28;42755;-76
2023/04/12 01:43:13;;;;;;;2.60;1.50;;;;;;;9.17;58.28;98241.56;5074675;28;41237;-76
2023/04/12 01:45:41;;;;;;;3.77;1.53;;;;;;;9.21;57.91;98237.78;5074212;28;40128;-77
2023/04/12 01:48:11;;;;;;;3.10;1.30;;;;;;;9.22;57.80;98248.25;5091892;28;40618;-75
2023/04/12 01:50:46;;;;;;;3.07;1.30;;;;;;;9.22;57.88;98235.06;5074881;28;41194;-76
2023/04/12 01:53:20;;;;;;;4.57;1.50;;;;;;;9.20;57.78;98226.38;5091724;28;42413;-76
2023/04/12 01:55:49;;;;;;;3.53;1.87;;;;;;;9.30;58.30;98231.88;5088669;28;40881;-76
2023/04/12 01:58:22;;;;;;;3.90;1.80;;;;;;;9.33;58.16;98236.97;5091583;28;43057;-76
2023/04/12 02:00:52;;;;;;;3.80;1.20;;;;;;;9.34;58.31;98228.94;5075122;28;41762;-76
2023/04/12 02:03:21;;;;;;;2.07;1.40;;;;;;;9.31;59.05;98208.00;5074742;28;41316;-75
2023/04/12 02:05:51;;;;;;;5.10;2.40;;;;;;;9.32;59.78;98211.50;5091697;28;39700;-77
2023/04/12 02:08:22;;;;;;;4.20;2.03;;;;;;;9.32;59.78;98203.56;5091596;28;43166;-76
2023/04/12 02:10:50;;;;;;;5.87;1.70;;;;;;;9.32;59.67;98206.22;5074578;28;42296;-76
2023/04/12 02:13:19;;;;;;;3.70;1.63;;;;;;;9.38;59.62;98203.16;5091582;28;43222;-76
2023/04/12 02:15:47;;;;;;;4.00;1.70;;;;;;;9.40;59.76;98211.81;5090976;28;38950;-76
2023/04/12 02:18:15;;;;;;;4.30;1.67;;;;;;;9.42;60.25;98201.97;5074198;28;41832;-75
2023/04/12 02:20:43;;;;;;;3.43;1.60;;;;;;;9.44;59.85;98202.72;5074282;28;43037;-76
2023/04/12 02:23:11;;;;;;;2.90;1.50;;;;;;;9.46;59.89;98195.56;5092592;28;42282;-76
2023/04/12 02:25:40;;;;;;;5.30;1.77;;;;;;;9.47;60.09;98193.75;5074234;28;39306;-76
2023/04/12 02:28:08;;;;;;;3.73;1.43;;;;;;;9.47;60.48;98189.31;5074200;28;41652;-77
2023/04/12 02:30:37;;;;;;;4.40;1.80;;;;;;;9.49;60.81;98179.50;5091434;28;43763;-76
2023/04/12 02:33:08;;;;;;;3.57;1.60;;;;;;;9.50;60.67;98180.34;5073583;28;41452;-76
2023/04/12 02:35:37;;;;;;;4.30;1.80;;;;;;;9.52;60.32;98173.97;5090952;28;39726;-75
2023/04/12 02:38:10;;;;;;;3.70;1.70;;;;;;;9.54;60.67;98172.06;5090891;28;42352;-75
2023/04/12 02:40:41;;;;;;;7.37;2.20;;;;;;;9.57;60.17;98171.88;5091317;28;42717;-75
2023/04/12 02:43:11;;;;;;;2.23;1.60;;;;;;;9.60;60.61;98176.09;5074249;28;41392;-76
2023/04/12 02:45:44;;;;;;;3.90;1.10;;;;;;;9.61;60.51;98162.78;5074296;28;39179;-75
2023/04/12 02:48:12;;;;;;;2.33;1.60;;;;;;;9.60;60.78;98150.50;5073611;28;40907;-75
2023/04/12 02:50:41;;;;;;;4.00;1.33;;;;;;;9.63;60.89;98150.31;5090890;28;42876;-75
2023/04/12 02:53:22;;;;;;;4.07;1.53;;;;;;;9.66;61.33;98155.34;5087920;28;42319;-76
2023/04/12 02:56:10;;;;;;;3.53;1.43;;;;;;;9.56;61.07;98122.59;5089606;28;39105;-77
2023/04/12 02:58:38;;;;;;;3.90;1.83;;;;;;;9.69;61.70;98149.00;5073631;28;41992;-76
2023/04/12 03:01:11;;;;;;;1.77;1.37;;;;;;;9.69;61.82;98138.44;5073499;28;41515;-76
2023/04/12 03:03:57;;;;;;;3.73;1.60;;;;;;;9.71;62.20;98132.09;5074024;28;42281;-75
2023/04/12 03:06:51;;;;;;;3.03;1.60;;;;;;;9.75;61.78;98142.47;5073370;28;38687;-76
2023/04/12 03:09:23;;;;;;;3.17;1.53;;;;;;;9.73;62.08;98127.56;5087791;28;42628;-76
2023/04/12 03:11:52;;;;;;;5.63;2.03;;;;;;;9.77;62.00;98140.56;5073341;28;41453;-76
2023/04/12 03:14:20;;;;;;;2.13;1.37;;;;;;;9.77;62.39;98140.56;5072978;28;41543;-76
2023/04/12 03:16:52;;;;;;;4.53;2.03;;;;;;;9.70;62.69;98127.75;5088402;28;39833;-75
2023/04/12 03:19:21;;;;;;;3.33;1.53;;;;;;;9.70;63.04;98127.75;5073522;28;40492;-76
2023/04/12 03:21:55;;;;;;;5.43;1.50;;;;;;;9.64;64.04;98125.53;5088275;28;42943;-76
2023/04/12 03:24:24;;;;;;;4.43;1.30;;;;;;;9.63;64.58;98123.88;5090231;28;43176;-76
2023/04/12 03:26:53;;;;;;;2.93;1.80;;;;;;;9.59;65.24;98125.03;5073457;28;41241;-75
2023/04/12 03:29:25;;;;;;;3.23;2.03;;;;;;;9.53;65.86;98117.50;5090710;28;40750;-76
2023/04/12 03:31:58;;;;;;;5.63;1.87;;;;;;;9.52;65.89;98110.53;5090091;28;43816;-76
2023/04/12 03:34:26;;;;;;;3.63;1.90;;;;;;;9.53;65.72;98111.38;5073778;28;41597;-76
2023/04/12 03:36:55;;;;;;;4.20;1.77;;;;;;;9.52;66.46;98107.88;5073085;28;39853;-76
2023/04/12 03:39:37;;;;;;;3.93;1.37;;;;;;;9.52;66.11;98096.50;5087340;28;41740;-76
2023/04/12 03:42:06;;;;;;;5.10;1.80;;;;;;;9.53;66.68;98083.16;5073025;28;41367;-76
2023/04/12 03:44:35;;;;;;;4.85;1.55;;;;;;;9.51;67.34;98082.44;5073373;28;41381;-76
2023/04/12 03:47:10;;;;;;;6.70;2.00;;;;;;;9.47;67.30;98074.81;5073107;28;38756;-75
2023/04/12 03:49:39;;;;;;;3.97;1.73;;;;;;;9.47;67.10;98086.25;5086905;28;42541;-76
2023/04/12 03:52:12;;;;;;;7.20;2.07;;;;;;;9.45;67.68;98082.84;5072705;28;42487;-76
2023/04/12 03:54:41;;;;;;;3.27;1.50;;;;;;;9.47;67.21;98078.31;5073155;28;42617;-76
2023/04/12 03:57:13;;;;;;;3.03;1.60;;;;;;;9.49;68.12;98073.78;5088553;28;40121;-76
2023/04/12 03:59:47;;;;;;;4.53;1.90;;;;;;;9.42;68.43;98076.94;5087010;28;41456;-76
2023/04/12 04:02:17;;;;;;;4.13;1.93;;;;;;;9.40;68.84;98074.41;5072525;28;41709;-76
2023/04/12 04:04:48;;;;;;;5.43;1.87;;;;;;;9.40;69.27;98074.41;5086700;28;42192;-76
2023/04/12 04:07:25;;;;;;;4.30;1.83;;;;;;;9.39;69.05;98078.03;5072758;28;40352;-76
2023/04/12 04:09:55;;;;;;;3.87;2.20;;;;;;;9.36;69.26;98067.66;5075800;28;41697;-76
2023/04/12 04:12:26;;;;;;;5.30;2.13;;;;;;;9.39;69.25;98064.81;5076073;28;42742;-76
2023/04/12 04:14:55;;;;;;;3.47;1.90;;;;;;;9.41;69.29;98060.22;5075519;28;42382;-75
2023/04/12 04:17:32;;;;;;;3.57;1.90;;;;;;;9.39;69.70;98062.16;5076335;28;39399;-76
2023/04/12 04:20:00;;;;;;;4.17;1.80;;;;;;;9.41;70.78;98073.44;5093243;28;41751;-75
2023/04/12 04:22:32;;;;;;;2.90;1.70;;;;;;;9.39;70.35;98069.25;5092110;28;43839;-76
2023/04/12 04:25:02;;;;;;;2.80;1.73;;;;;;;9.35;71.67;98063.31;5093376;28;42125;-76
2023/04/12 04:27:33;;;;;;;7.03;2.40;;;;;;;9.31;71.43;98061.84;5076016;28;38548;-76
2023/04/12 04:30:03;;;;;;;7.50;1.87;;;;;;;9.29;71.72;98047.88;5093156;28;41934;-76
2023/04/12 04:32:33;;;;;;;2.63;1.80;;;;;;;9.28;71.86;98043.56;5075759;28;41998;-76
2023/04/12 04:35:02;;;;;;;6.17;2.13;;;;;;;9.28;71.53;98046.19;5075776;28;41237;-76
2023/04/12 04:37:41;;;;;;;4.50;1.80;;;;;;;9.26;71.62;98050.75;5075863;28;38952;-76
2023/04/12 04:40:10;;;;;;;3.20;1.83;;;;;;;9.24;72.07;98040.31;5092529;28;41430;-76
2023/04/12 04:42:41;;;;;;;5.07;2.20;;;;;;;9.27;72.03;98042.72;5092490;28;42116;-76
2023/04/12 04:45:13;;;;;;;4.40;2.40;;;;;;;9.30;72.12;98036.38;5092715;28;42597;-77
2023/04/12 04:47:45;;;;;;;4.87;2.10;;;;;;;9.29;71.99;98029.38;5092079;28;40212;-76
2023/04/12 04:50:13;;;;;;;3.00;1.93;;;;;;;9.31;72.33;98032.78;5075538;28;40845;-77
2023/04/12 04:52:40;;;;;;;3.47;2.03;;;;;;;9.25;74.01;98017.38;5075457;28;41811;-76
2023/04/12 04:55:12;;;;;;;4.50;2.10;;;;;;;9.20;73.95;98016.84;5075635;28;41159;-77
2023/04/12 04:57:45;;;;;;;4.47;2.10;;;;;;;9.15;75.04;98016.34;5075920;28;38707;-75
2023/04/12 05:00:15;;;;;;;2.90;2.03;;;;;;;9.05;75.08;97994.97;5075674;28;41706;-76
2023/04/12 05:02:48;;;;;;;4.80;2.20;;;;;;;9.20;74.73;97995.72;5092029;28;42955;-76
2023/04/12 05:05:24;;;;;;;4.90;2.27;;;;;;;9.25;74.77;98001.53;5089014;28;42250;-76
2023/04/12 05:07:59;;;;;;;5.67;2.30;;;;;;;9.23;74.70;97998.13;5075656;28;39664;-76
2023/04/12 05:10:30;;;;;;;4.00;1.73;;;;;;;9.26;74.75;97997.94;5075424;28;41926;-76
2023/04/12 05:13:02;;;;;;;7.27;1.93;;;;;;;9.29;74.61;97987.97;5075675;28;41855;-76
2023/04/12 05:15:31;;;;;;;3.93;2.00;;;;;;;9.33;75.21;97985.97;5074969;28;42192;-76
2023/04/12 05:18:00;;;;;;;4.40;1.97;;;;;;;9.36;75.04;97983.09;5092142;28;39971;-76
2023/04/12 05:20:28;;;;;;;2.50;1.67;;;;;;;9.37;74.51;97976.88;5073831;28;40544;-76
2023/04/12 05:22:56;;;;;;;2.73;1.67;;;;;;;9.41;74.64;97980.97;5092110;28;43722;-76
2023/04/12 05:25:24;;;;;;;7.07;3.07;;;;;;;9.34;74.63;97969.16;5092125;28;43196;-76
2023/04/12 05:27:59;;;;;;;4.30;1.90;;;;;;;9.43;75.09;97978.22;5075351;28;39024;-77
2023/04/12 05:30:27;;;;;;;3.27;1.80;;;;;;;9.43;75.17;97968.47;5074841;28;40865;-77
2023/04/12 05:32:55;;;;;;;3.40;1.80;;;;;;;9.47;75.21;97964.69;5091896;28;42738;-77
2023/04/12 05:35:25;;;;;;;4.03;2.20;;;;;;;9.53;75.30;97969.50;5075000;28;41107;-77
2023/04/12 05:37:58;;;;;;;2.57;1.80;;;;;;;9.61;74.65;97967.16;5091504;28;39900;-76
2023/04/12 05:40:25;;;;;;;4.47;2.40;;;;;;;9.64;75.04;97961.63;5075350;28;40852;-78
2023/04/12 05:42:54;;;;;;;3.30;1.70;;;;;;;9.66;74.66;97959.72;5075033;28;41701;-77
2023/04/12 05:45:23;;;;;;;3.93;1.50;;;;;;;9.69;74.62;97954.22;5074803;28;42141;-77
2023/04/12 05:47:50;;;;;;;2.83;1.50;;;;;;;9.72;74.17;97956.66;5091525;28;40872;-77
2023/04/12 05:50:19;;;;;;;3.43;1.40;;;;;;;9.68;74.76;97946.41;5091741;28;41720;-77
2023/04/12 05:52:51;;;;;;;4.07;1.70;;;;;;;9.48;74.94;97912.66;5091364;28;43752;-77
2023/04/12 05:55:21;;;;;;;2.83;1.30;;;;;;;9.65;75.18;97936.91;5088474;28;42900;-77
2023/04/12 05:57:50;;;;;;;5.63;1.87;;;;;;;9.68;75.21;97941.97;5074401;28;40111;-77
2023/04/12 06:00:22;;;;;;;3.77;1.60;;;;;;;9.70;74.81;97940.06;5091843;28;41473;-77
2023/04/12 06:02:51;;;;;;;2.53;1.40;;;;;;;9.72;74.92;97938.16;5074385;28;41780;-78
2023/04/12 06:05:19;;;;;;;4.87;1.47;;;;;;;9.64;75.11;97937.03;5074623;28;42231;-77
2023/04/12 06:07:49;;;;;;;5.40;1.60;;;;;;;9.60;75.86;97930.28;5074373;28;38852;-78
2023/04/12 06:10:17;;;;;;;3.43;1.60;;;;;;;9.59;75.82;97926.78;5091380;28;41743;-77
2023/04/12 06:12:48;;;;;;;3.13;1.50;;;;;;;9.61;75.92;97921.38;5090888;28;43163;-77
2023/04/12 06:15:18;;;;;;;3.47;1.87;;;;;;;9.61;76.04;97924.03;5090977;28;42310;-77
2023/04/12 06:17:46;;;;;;;3.13;1.50;;;;;;;9.63;76.28;97916.84;5074558;28;40372;-78
2023/04/12 06:20:14;;;;;;;2.30;1.50;;;;;;;9.68;76.80;97912.03;5074055;28;40716;-76
2023/04/12 06:22:42;;;;;;;2.83;1.90;;;;;;;9.71;76.44;97919.75;5090984;28;43760;-77
2023/04/12 06:25:12;;;;;;;2.77;1.80;;;;;;;9.64;76.68;97906.13;5074325;28;41258;-77
2023/04/12 06:27:40;;;;;;;3.20;1.60;;;;;;;9.65;77.64;97899.88;5074266;28;39913;-77
2023/04/12 06:30:16;;;;;;;4.33;2.90;;;;;;;9.67;77.04;97907.72;5074616;28;40972;-77
2023/04/12 06:32:44;;;;;;;3.20;2.73;;;;;;;9.64;78.11;97892.09;5090319;28;42694;-77
2023/04/12 06:35:12;;;;;;;4.13;1.97;;;;;;;9.62;78.38;97889.56;5091266;28;43182;-77
2023/04/12 06:37:40;;;;;;;4.03;1.80;;;;;;;9.63;78.77;97880.69;5073828;28;40007;-78
2023/04/12 06:40:11;;;;;;;4.10;2.03;;;;;;;9.58;79.46;97871.38;5090971;28;41171;-78
2023/04/12 06:42:40;;;;;;;2.57;1.70;;;;;;;9.75;78.85;97883.38;5090583;28;41836;-77
2023/04/12 06:45:09;;;;;;;2.97;1.70;;;;;;;9.73;79.48;97871.09;5090635;28;42304;-77
2023/04/12 06:47:36;;;;;;;3.07;1.80;;;;;;;9.67;80.87;97858.31;5074134;28;39969;-76
2023/04/12 06:50:05;;;;;;;4.33;1.80;;;;;;;9.68;80.69;97862.66;5073967;28;40604;-77
2023/04/12 06:52:33;;;;;;;7.20;2.33;;;;;;;9.73;80.84;97865.81;5073708;28;42841;-77
2023/04/12 06:55:01;;;;;;;2.60;2.10;;;;;;;9.79;80.28;97864.50;5073745;28;41554;-77
2023/04/12 06:57:29;;;;;;;4.90;2.20;;;;;;;9.79;80.94;97853.06;5073793;28;39305;-77
2023/04/12 06:59:59;;;;;;;5.30;2.23;;;;;;;9.77;82.11;97839.97;5073541;28;41798;-78
2023/04/12 07:02:26;;;;;;;5.07;2.17;;;;;;;9.84;81.74;97838.56;5073639;28;41689;-77
2023/04/12 07:04:54;;;;;;;3.33;2.00;;;;;;;9.89;81.78;97832.94;5073670;28;41487;-77
2023/04/12 07:07:23;;;;;;;4.93;1.87;;;;;;;9.93;81.71;97837.00;5090272;28;40023;-77
2023/04/12 07:09:51;;;;;;;3.43;2.10;;;;;;;9.95;81.72;97824.53;5090428;28;41750;-77
2023/04/12 07:12:19;;;;;;;4.20;2.00;;;;;;;9.89;82.04;97823.16;5073362;28;41733;-76
2023/04/12 07:14:47;;;;;;;3.17;2.23;;;;;;;10.03;81.61;97827.41;5089908;28;43201;-77
2023/04/12 07:17:16;;;;;;;4.20;2.17;;;;;;;10.07;81.99;97818.28;5090339;28;39532;-77
2023/04/12 07:19:44;;;;;;;4.03;2.20;;;;;;;10.05;81.84;97806.97;5073619;28;40875;-78
2023/04/12 07:22:12;;;;;;;4.30;2.23;;;;;;;10.01;82.24;97803.72;5089848;28;43005;-78
2023/04/12 07:24:39;;;;;;;4.47;2.13;;;;;;;10.06;81.97;97795.44;5073008;28;42320;-76
2023/04/12 07:27:07;;;;;;;5.93;2.10;;;;;;;10.00;81.86;97777.41;5073164;28;39810;-77
2023/04/12 07:29:35;;;;;;;5.90;2.20;;;;;;;10.04;82.79;97786.78;5090067;28;41303;-77
2023/04/12 07:32:04;;;;;;;4.80;2.50;;;;;;;10.11;82.53;97785.34;5089789;28;42700;-77
2023/04/12 07:34:35;;;;;;;3.17;2.40;;;;;;;10.11;83.02;97774.78;5089927;28;41911;-77
2023/04/12 07:37:02;;;;;;;5.23;2.07;;;;;;;10.10;82.82;97770.44;5089687;28;41109;-78
2023/04/12 07:39:30;;;;;;;4.20;2.67;;;;;;;10.10;83.53;97762.50;5091356;28;41757;-77
2023/04/12 07:41:58;;;;;;;4.23;2.50;;;;;;;9.99;83.29;97739.53;5089984;28;43291;-77
2023/04/12 07:44:26;;;;;;;3.70;2.27;;;;;;;10.14;83.29;97763.13;5075393;28;41080;-76
2023/04/12 07:46:54;;;;;;;2.43;2.10;;;;;;;10.16;83.00;97730.28;5076474;28;40011;-76
2023/04/12 07:49:22;;;;;;;4.87;2.70;;;;;;;10.33;82.58;97743.06;5076521;28;40726;-76
2023/04/12 07:51:51;;;;;;;4.60;2.50;;;;;;;10.31;82.72;97737.03;5093020;28;43767;-76
2023/04/12 07:54:19;;;;;;;3.07;2.37;;;;;;;10.34;82.63;97728.84;5076464;28;41918;-77
2023/04/12 07:56:58;;;;;;;3.83;2.50;;;;;;;10.30;83.35;97732.69;5076613;28;39943;-76
2023/04/12 07:59:26;;;;;;;4.33;3.13;;;;;;;10.39;83.11;97731.97;5076106;28;40910;-77
2023/04/12 08:01:54;;;;;;;5.67;2.40;;;;;;;10.42;82.92;97730.88;5075847;28;41753;-75
2023/04/12 08:04:21;;;;;;;7.07;2.50;;;;;;;10.44;83.67;97721.03;5092908;28;41074;-76
2023/04/12 08:06:52;;;;;;;3.77;2.33;;;;;;;10.41;83.93;97722.09;5093047;28;39918;-76
2023/04/12 08:09:19;;;;;;;3.07;2.07;;;;;;;10.31;83.59;97704.44;5076114;28;41914;-76
2023/04/12 08:11:47;;;;;;;2.30;2.10;;;;;;;10.43;83.42;97712.25;5075720;28;41852;-75
2023/04/12 08:14:15;;;;;;;3.80;2.07;;;;;;;10.41;82.76;97713.31;5092605;28;42324;-76
2023/04/12 08:16:43;;;;;;;3.73;2.67;;;;;;;10.35;83.11;97713.81;5076182;28;38955;-75
2023/04/12 08:19:11;;;;;;;3.53;2.20;;;;;;;10.35;83.69;97705.88;5093088;28;41764;-75
2023/04/12 08:21:39;;;;;;;2.83;2.30;;;;;;;10.41;84.02;97698.28;5092603;28;43750;-75
2023/04/12 08:24:09;;;;;;;2.93;2.33;;;;;;;10.44;84.01;97707.78;5092632;28;42407;-75
2023/04/12 08:26:38;;;;;;;6.17;2.70;;;;;;;10.38;83.45;97693.25;5090656;28;41660;-75
2023/04/12 08:29:07;;;;;;;2.93;2.20;;;;;;;10.35;84.12;97671.50;5092477;28;40350;-76
2023/04/12 08:31:35;;;;;;;5.17;2.50;;;;;;;10.44;83.76;97686.63;5075649;28;41772;-75
2023/04/12 08:34:02;;;;;;;2.97;2.07;;;;;;;10.47;83.42;97680.25;5092858;28;42173;-75
2023/04/12 08:36:31;;;;;;;2.97;2.23;;;;;;;10.48;83.84;97681.94;5075247;28;40056;-76
2023/04/12 08:38:59;;;;;;;3.00;2.17;;;;;;;10.46;84.20;97679.41;5092794;28;42723;-76
2023/04/12 08:41:29;;;;;;;2.53;2.20;;;;;;;10.47;84.48;97670.50;5075640;28;41664;-76
2023/04/12 08:43:58;;;;;;;2.60;2.10;;;;;;;10.59;84.07;97668.66;5075729;28;41176;-76
2023/04/12 08:46:28;;;;;;;3.00;2.20;;;;;;;10.72;83.84;97661.41;5075402;28;39147;-77
2023/04/12 08:48:57;;;;;;;2.90;2.00;;;;;;;10.94;83.34;97652.50;5090510;28;42406;-76
2023/04/12 08:51:25;;;;;;;2.37;2.10;;;;;;;11.03;83.32;97652.56;5092289;28;42671;-76
2023/04/12 08:53:53;;;;;;;2.97;1.90;;;;;;;11.11;82.29;97655.44;5091990;28;41444;-76
2023/04/12 08:56:23;;;;;;;2.40;2.20;;;;;;;11.21;82.45;97644.91;5075411;28;39015;-76
2023/04/12 08:58:53;;;;;;;1.90;1.80;;;;;;;11.32;82.02;97642.19;5093524;28;41725;-76
2023/04/12 09:01:21;;;;;;;1.83;1.70;;;;;;;11.43;81.87;97638.63;5091977;28;41686;-76
2023/04/12 09:03:49;;;;;;;1.80;1.70;;;;;;;11.49;81.08;97628.34;5092146;28;41271;-76
2023/04/12 09:06:16;;;;;;;3.50;2.00;;;;;;;11.49;80.70;97611.59;5092158;28;39990;-76
2023/04/12 09:08:54;;;;;;;2.40;1.97;;;;;;;11.60;81.41;97614.16;5075356;28;40647;-76
2023/04/12 09:11:24;;;;;;;2.10;1.90;;;;;;;11.48;80.84;97599.31;5093237;28;42731;-75
2023/04/12 09:13:54;;;;;;;2.50;1.80;;;;;;;11.50;81.43;97602.66;5074879;28;42528;-76
2023/04/12 09:16:39;;;;;;;5.30;2.30;;;;;;;11.35;80.77;97602.19;5074726;28;40867;-76
2023/04/12 09:19:08;;;;;;;4.80;2.60;;;;;;;11.35;82.17;97593.38;5088974;28;41866;-76
2023/04/12 09:21:36;;;;;;;2.47;2.13;;;;;;;11.05;82.15;97528.78;5091379;28;42890;-76
2023/04/12 09:24:08;;;;;;;2.83;1.93;;;;;;;11.42;82.21;97578.63;5074924;28;42314;-77
2023/04/12 09:26:36;;;;;;;2.20;2.00;;;;;;;11.45;81.75;97570.41;5075026;28;39238;-76
2023/04/12 09:29:06;;;;;;;2.87;2.07;;;;;;;11.47;81.49;97571.13;5091610;28;41564;-77
2023/04/12 09:31:34;;;;;;;2.13;1.93;;;;;;;11.65;81.87;97572.16;5092575;28;42601;-76
2023/04/12 09:34:08;;;;;;;3.83;1.90;;;;;;;11.76;81.49;97540.28;5092817;28;43020;-75
2023/04/12 09:36:40;;;;;;;3.07;1.90;;;;;;;12.07;81.06;97549.00;5091589;28;39698;-76
2023/04/12 09:39:08;;;;;;;3.07;2.17;;;;;;;12.25;80.35;97535.88;5074192;28;42073;-75
2023/04/12 09:41:36;;;;;;;2.47;1.80;;;;;;;12.36;78.64;97549.06;5092588;28;43490;-76
2023/04/12 09:44:05;;;;;;;2.47;2.10;;;;;;;12.30;78.86;97554.91;5091346;28;42389;-75
2023/04/12 09:46:33;;;;;;;2.00;1.80;;;;;;;12.49;79.31;97549.59;5091259;28;38876;-75
2023/04/12 09:49:02;;;;;;;2.20;2.00;;;;;;;12.46;78.42;97549.88;5090722;28;40861;-75
2023/04/12 09:51:31;;;;;;;2.00;1.70;;;;;;;12.49;79.15;97544.28;5073985;28;41978;-75
2023/04/12 09:54:01;;;;;;;2.90;2.00;;;;;;;12.44;79.24;97541.22;5091550;28;43093;-75
2023/04/12 09:56:30;;;;;;;1.50;1.40;;;;;;;12.42;79.43;97540.53;5090976;28;39242;-74
2023/04/12 09:59:02;;;;;;;1.87;1.77;;;;;;;12.52;79.22;97532.53;5074278;28;41736;-75
2023/04/12 10:01:35;;;;;;;1.97;1.77;;;;;;;12.61;78.84;97537.00;5088018;28;43286;-75
2023/04/12 10:04:03;;;;;;;4.33;1.80;;;;;;;12.57;79.33;97514.38;5087662;28;42308;-75
2023/04/12 10:06:32;;;;;;;2.40;1.80;;;;;;;12.52;79.09;97528.06;5072983;28;40797;-75
2023/04/12 10:09:03;;;;;;;1.80;1.57;;;;;;;12.53;79.48;97519.13;5074007;28;40796;-75
2023/04/12 10:11:32;;;;;;;2.67;1.73;;;;;;;12.47;79.11;97513.56;5090543;28;41646;-75
2023/04/12 10:14:02;;;;;;;2.70;1.90;;;;;;;12.34;79.61;97513.84;5092229;28;41939;-76
2023/04/12 10:16:34;;;;;;;2.77;1.60;;;;;;;12.24;80.27;97527.09;5073600;28;38615;-75
2023/04/12 10:19:03;;;;;;;2.93;1.80;;;;;;;12.12;81.15;97514.91;5074359;28;42118;-75
2023/04/12 10:21:31;;;;;;;1.67;1.50;;;;;;;12.17;81.27;97498.59;5090643;28;42654;-75
2023/04/12 10:23:59;;;;;;;1.93;1.80;;;;;;;12.19;81.64;97509.91;5092166;28;42243;-75
2023/04/12 10:26:28;;;;;;;2.33;1.80;;;;;;;12.19;81.18;97504.59;5090619;28;39958;-75
2023/04/12 10:29:27;;;;;;;1.80;1.43;;;;;;;12.24;81.70;97508.50;5090631;28;42642;-74
2023/04/12 10:31:58;;;;;;;1.63;1.53;;;;;;;12.40;81.63;97492.03;5090404;28;42880;-75
2023/04/12 10:34:30;;;;;;;3.10;1.67;;;;;;;12.54;81.02;97494.25;5090371;28;41643;-75
2023/04/12 10:36:59;;;;;;;2.17;1.60;;;;;;;12.51;80.47;97489.22;5090344;28;40864;-73
2023/04/12 10:39:41;;;;;;;3.70;1.97;;;;;;;12.41;80.64;97485.75;5091668;28;41705;-74
2023/04/12 10:42:23;;;;;;;3.03;1.93;;;;;;;12.42;80.77;97490.06;5073296;28;42581;-75
2023/04/12 10:44:52;;;;;;;3.03;2.00;;;;;;;12.44;81.37;97482.81;5088714;28;43593;-75
2023/04/12 10:48:02;;;;;;;2.00;1.90;;;;;;;12.56;81.21;97491.47;5090104;28;40145;-74
2023/04/12 10:50:32;;;;;;;3.80;1.90;;;;;;;12.64;81.25;97482.78;5090570;28;41073;-75
2023/04/12 10:53:23;;;;;;;2.73;2.13;;;;;;;12.79;81.21;97462.75;5089897;28;43886;-75
2023/04/12 10:55:51;;;;;;;2.93;2.10;;;;;;;12.91;81.07;97458.97;5073166;28;41052;-74
2023/04/12 10:58:57;;;;;;;3.27;2.17;;;;;;;12.92;80.88;97457.97;5073371;28;40944;-74
2023/04/12 11:01:27;;;;;;;3.73;2.20;;;;;;;13.00;80.07;97447.44;5087732;28;42768;-75
2023/04/12 11:04:12;;;;;;;3.53;2.20;;;;;;;13.10;79.84;97432.34;5090360;28;42792;-74
2023/04/12 11:06:42;;;;;;;3.77;1.87;;;;;;;13.22;79.43;97430.34;5090094;28;42054;-75
2023/04/12 11:09:39;;;;;;;2.10;1.77;;;;;;;13.24;79.24;97433.66;5073255;28;39189;-75
2023/04/12 11:12:15;;;;;;;3.43;1.87;;;;;;;13.21;78.34;97445.47;5090244;28;40568;-75
2023/04/12 11:14:48;;;;;;;2.30;1.70;;;;;;;13.31;79.53;97440.09;5072820;28;42459;-75
2023/04/12 11:17:23;;;;;;;2.20;1.60;;;;;;;13.49;79.15;97437.47;5090438;28;42296;-75
2023/04/12 11:19:58;;;;;;;2.40;1.80;;;;;;;13.47;79.14;97413.72;5093784;28;40721;-75
2023/04/12 11:22:27;;;;;;;2.40;2.10;;;;;;;13.21;78.68;97392.28;5092100;28;42638;-75
2023/04/12 11:24:57;;;;;;;1.83;1.70;;;;;;;13.64;79.82;97425.34;5093582;28;41747;-75
2023/04/12 11:27:26;;;;;;;2.67;1.70;;;;;;;13.84;78.64;97416.25;5076358;28;41430;-75
2023/04/12 11:29:56;;;;;;;2.50;2.27;;;;;;;13.87;77.58;97415.94;5076546;28;38837;-75
2023/04/12 11:32:25;;;;;;;2.80;1.83;;;;;;;13.95;77.87;97407.22;5093343;28;41595;-75
2023/04/12 11:34:56;;;;;;;3.83;2.10;;;;;;;14.01;77.61;97418.06;5093702;28;43382;-76
2023/04/12 11:37:25;;;;;;;2.73;2.00;;;;;;;14.04;77.65;97416.94;5093448;28;41175;-75
2023/04/12 11:39:56;;;;;;;2.50;2.10;;;;;;;14.06;78.12;97408.81;5093529;28;39989;-75
2023/04/12 11:42:25;;;;;;;3.17;2.03;;;;;;;14.10;78.21;97404.81;5094854;28;41409;-75
2023/04/12 11:44:54;;;;;;;2.17;1.97;;;;;;;13.99;77.60;97413.88;5093266;28;43709;-76
2023/04/12 11:47:24;;;;;;;2.70;1.90;;;;;;;13.99;77.78;97401.41;5076089;28;41132;-76
2023/04/12 11:49:52;;;;;;;2.77;2.20;;;;;;;14.18;78.27;97396.91;5093363;28;39837;-76
2023/04/12 11:52:28;;;;;;;2.20;1.80;;;;;;;14.38;78.41;97388.59;5092779;28;41781;-76
2023/04/12 11:54:57;;;;;;;3.93;2.20;;;;;;;14.30;77.69;97335.28;5093453;28;42262;-76